Terminal Aerodrome Forecast
Issued by NWS

Current Version | Previous Version | Text Only | Print | Product List | Glossary On
Versions: 1 2 3 4 5 6 7 8 9 10 11 12 13 14 15 16 17 18 19 20 21 22 23 24 25 26 27 28 29 30 31 32 33 34 35
000
FTUS41 KCTP 301245 AAA
TAFLNS
TAF AMD
KLNS 301245Z 3013/3112 27005KT 4SM BR SKC
     FM301400 27005KT P6SM SKC
     FM301500 32008KT P6SM SCT050
     FM310900 03003KT P6SM BKN150=

USA.gov is the U.S. government's official web portal to all federal, state and local government web resources and services.